createdAt,value
2023-02-23T00:02:16.898Z,100651.22
2023-02-23T00:04:48.178Z,100652.94
2023-02-23T00:07:20.253Z,100646.75
2023-02-23T00:09:50.964Z,100652.56
2023-02-23T00:12:24.082Z,100641.31
2023-02-23T00:14:53.821Z,100643.84
2023-02-23T00:17:24.501Z,100638.75
2023-02-23T00:19:55.305Z,100645.78
2023-02-23T00:22:25.112Z,100632.13
2023-02-23T00:24:54.704Z,100638.97
2023-02-23T00:27:27.459Z,100646.91
2023-02-23T00:30:00.185Z,100605.63
2023-02-23T00:32:29.895Z,100648.72
2023-02-23T00:34:59.594Z,100618.13
2023-02-23T00:37:29.402Z,100650.75
2023-02-23T00:39:59.372Z,100653.28
2023-02-23T00:42:33.490Z,100653.44
2023-02-23T00:45:08.811Z,100657.63
2023-02-23T00:47:38.607Z,100660.16
2023-02-23T00:50:11.731Z,100666.13
2023-02-23T00:52:41.635Z,100662.66
2023-02-23T00:55:13.116Z,100659.25
2023-02-23T00:57:45.397Z,100672.91
2023-02-23T01:00:20.775Z,100670.31
2023-02-23T01:02:51.711Z,100677.09
2023-02-23T01:05:22.262Z,100660.59
2023-02-23T01:07:51.944Z,100663.25
2023-02-23T01:10:22.115Z,100675.41
2023-02-23T01:12:55.258Z,100673.72
2023-02-23T01:15:27.730Z,100663.28
2023-02-23T01:17:57.475Z,100680.31
2023-02-23T01:20:28.217Z,100682.91
2023-02-23T01:22:57.828Z,100677.81
2023-02-23T01:25:29.113Z,100674.31
2023-02-23T01:28:01.331Z,100670.13
2023-02-23T01:30:31.020Z,100678.63
2023-02-23T01:33:01.001Z,100673.41
2023-02-23T01:35:30.834Z,100681.84
2023-02-23T01:38:00.508Z,100619.09
2023-02-23T01:40:37.110Z,100668.88
2023-02-23T01:43:17.835Z,100671.31
2023-02-23T01:45:48.063Z,100677.13
2023-02-23T01:48:20.926Z,100677.22
2023-02-23T01:50:58.617Z,100685.09
2023-02-23T01:53:30.498Z,100676.50
2023-02-23T01:56:03.885Z,100631.78
2023-02-23T01:58:36.570Z,100667.19
2023-02-23T02:01:06.397Z,100579.31
2023-02-23T02:03:39.429Z,100681.03
2023-02-23T02:06:14.166Z,100683.63
2023-02-23T02:08:48.038Z,100670.16
2023-02-23T02:11:30.921Z,100673.44
2023-02-23T02:14:13.141Z,100686.38
2023-02-23T02:17:02.376Z,100684.53
2023-02-23T02:20:01.242Z,100645.78
2023-02-23T02:23:08.512Z,100663.88
2023-02-23T02:26:04.546Z,100683.44
2023-02-23T02:29:06.724Z,100640.25
2023-02-23T02:31:58.825Z,100681.66
2023-02-23T02:34:51.710Z,100674.78
2023-02-23T02:37:33.259Z,100669.69
2023-02-23T02:40:18.305Z,100648.38
2023-02-23T02:43:10.168Z,100661.22
2023-02-23T02:45:54.516Z,100629.38
2023-02-23T02:48:33.357Z,100675.97
2023-02-23T02:51:10.148Z,100665.75
2023-02-23T02:53:48.189Z,100654.78
2023-02-23T02:56:21.332Z,100674.59
2023-02-23T02:58:53.643Z,100661.72
2023-02-23T03:01:36.457Z,100655.59
2023-02-23T03:04:35.175Z,100649.69
2023-02-23T03:07:23.264Z,100659.97
2023-02-23T03:10:15.118Z,100584.16
2023-02-23T03:13:08.096Z,100664.84
2023-02-23T03:15:59.780Z,100661.41
2023-02-23T03:19:00.987Z,100656.31
2023-02-23T03:21:48.975Z,100661.50
2023-02-23T03:24:39.203Z,100604.88
2023-02-23T03:27:33.628Z,100668.44
2023-02-23T03:30:21.727Z,100667.53
2023-02-23T03:33:06.935Z,100669.34
2023-02-23T03:35:58.171Z,100643.72
2023-02-23T03:38:47.022Z,100674.44
2023-02-23T03:41:33.114Z,100666.81
2023-02-23T03:44:24.951Z,100675.41
2023-02-23T03:47:09.094Z,100677.00
2023-02-23T03:49:55.036Z,100640.16
2023-02-23T03:52:43.037Z,100651.31
2023-02-23T03:55:30.823Z,100669.34
2023-02-23T03:58:15.811Z,100636.66
2023-02-23T04:01:04.152Z,100655.69
2023-02-23T04:03:49.218Z,100678.06
2023-02-23T04:06:33.855Z,100673.69
2023-02-23T04:09:20.251Z,100627.38
2023-02-23T04:12:06.933Z,100677.19
2023-02-23T04:14:40.349Z,100663.41
2023-02-23T04:17:12.230Z,100655.78
2023-02-23T04:19:41.820Z,100675.56
2023-02-23T04:22:11.413Z,100673.88
2023-02-23T04:24:41.019Z,100674.84
2023-02-23T04:27:10.693Z,100671.47
2023-02-23T04:29:40.321Z,100673.09
2023-02-23T04:32:15.850Z,100675.75
2023-02-23T04:34:46.069Z,100678.97
2023-02-23T04:37:16.520Z,100675.50
2023-02-23T04:39:49.712Z,100672.16
2023-02-23T04:42:20.347Z,100679.69
2023-02-23T04:44:50.263Z,100681.66
2023-02-23T04:47:22.539Z,100662.78
2023-02-23T04:49:52.148Z,100680.75
2023-02-23T04:52:21.741Z,100661.75
2023-02-23T04:54:51.357Z,100674.72
2023-02-23T04:57:21.118Z,100685.94
2023-02-23T04:59:50.749Z,100671.28
2023-02-23T05:02:23.173Z,100687.72
2023-02-23T05:04:52.853Z,100686.66
2023-02-23T05:07:22.963Z,100664.22
2023-02-23T05:09:52.575Z,100657.25
2023-02-23T05:12:22.352Z,100697.53
2023-02-23T05:14:51.986Z,100683.72
2023-02-23T05:17:24.332Z,100688.25
2023-02-23T05:19:54.282Z,100633.72
2023-02-23T05:22:23.941Z,100658.44
2023-02-23T05:24:55.281Z,100684.41
2023-02-23T05:27:26.015Z,100687.91
2023-02-23T05:29:55.623Z,100691.19
2023-02-23T05:32:27.903Z,100688.63
2023-02-23T05:34:57.634Z,100689.44
2023-02-23T05:37:27.340Z,100668.72
2023-02-23T05:39:57.029Z,100661.06
2023-02-23T05:42:26.625Z,100686.06
2023-02-23T05:44:56.308Z,100688.69
2023-02-23T05:47:28.515Z,100692.13
2023-02-23T05:49:58.651Z,100681.75
2023-02-23T05:52:28.227Z,100685.84
2023-02-23T05:54:57.825Z,100685.69
2023-02-23T05:57:27.529Z,100669.31
2023-02-23T05:59:57.237Z,100671.09
2023-02-23T06:02:29.696Z,100679.78
2023-02-23T06:04:59.335Z,100692.50
2023-02-23T06:07:29.090Z,100689.09
2023-02-23T06:09:58.687Z,100678.00
2023-02-23T06:12:28.304Z,100696.06
2023-02-23T06:14:57.942Z,100702.78
2023-02-23T06:17:30.907Z,100662.41
2023-02-23T06:20:02.143Z,100695.06
2023-02-23T06:22:31.778Z,100700.16
2023-02-23T06:25:02.592Z,100690.56
2023-02-23T06:27:32.225Z,100693.97
2023-02-23T06:30:01.833Z,100696.63
2023-02-23T06:32:34.513Z,100632.72
2023-02-23T06:35:06.140Z,100695.00
2023-02-23T06:37:36.392Z,100703.53
2023-02-23T06:40:06.109Z,100684.13
2023-02-23T06:42:36.938Z,100722.25
2023-02-23T06:45:07.137Z,100727.38
2023-02-23T06:47:39.412Z,100729.00
2023-02-23T06:50:10.394Z,100714.97
2023-02-23T06:52:40.483Z,100721.72
2023-02-23T06:55:13.254Z,100727.81
2023-02-23T06:57:44.066Z,100730.47
2023-02-23T07:00:17.397Z,100746.81
2023-02-23T07:02:49.631Z,100737.25
2023-02-23T07:05:19.515Z,100736.25
2023-02-23T07:07:49.215Z,100718.16
2023-02-23T07:10:19.182Z,100755.16
2023-02-23T07:12:48.854Z,100750.81
2023-02-23T07:15:20.355Z,100756.72
2023-02-23T07:17:52.992Z,100763.41
2023-02-23T07:20:22.680Z,100754.69
2023-02-23T07:22:52.256Z,100738.47
2023-02-23T07:25:21.943Z,100759.19
2023-02-23T07:27:51.925Z,100763.41
2023-02-23T07:30:24.556Z,100733.00
2023-02-23T07:32:57.104Z,100752.19
2023-02-23T07:35:26.751Z,100751.44
2023-02-23T07:37:56.706Z,100760.22
2023-02-23T07:40:27.174Z,100691.47
2023-02-23T07:42:57.391Z,100768.28
2023-02-23T07:45:27.995Z,100745.19
2023-02-23T07:48:00.307Z,100742.81
2023-02-23T07:50:30.012Z,100761.75
2023-02-23T07:52:59.939Z,100766.97
2023-02-23T07:55:30.008Z,100754.94
2023-02-23T07:58:00.234Z,100760.94
2023-02-23T08:00:30.047Z,100748.97
2023-02-23T08:03:02.716Z,100779.88
2023-02-23T08:05:32.681Z,100769.41
2023-02-23T08:08:02.671Z,100786.44
2023-02-23T08:10:32.626Z,100784.53
2023-02-23T08:13:02.814Z,100758.81
2023-02-23T08:15:32.903Z,100775.25
2023-02-23T08:18:05.386Z,100775.09
2023-02-23T08:20:35.392Z,100769.22
2023-02-23T08:23:05.007Z,100786.44
2023-02-23T08:25:34.661Z,100763.25
2023-02-23T08:28:06.859Z,100709.75
2023-02-23T08:30:37.136Z,100776.03
2023-02-23T08:33:09.443Z,100795.88
2023-02-23T08:35:39.070Z,100786.44
2023-02-23T08:38:08.713Z,100780.34
2023-02-23T08:40:38.448Z,100794.94
2023-02-23T08:43:08.132Z,100786.19
2023-02-23T08:45:38.702Z,100786.34
2023-02-23T08:48:11.527Z,100792.50
2023-02-23T08:50:41.144Z,100750.06
2023-02-23T08:53:10.735Z,100787.97
2023-02-23T08:55:41.229Z,100785.28
2023-02-23T08:58:11.169Z,100791.44
2023-02-23T09:00:41.189Z,100802.75
2023-02-23T09:03:13.423Z,100806.13
2023-02-23T09:05:43.432Z,100800.66
2023-02-23T09:08:13.122Z,100792.84
2023-02-23T09:10:44.019Z,100806.66
2023-02-23T09:13:14.185Z,100807.59
2023-02-23T09:15:44.446Z,100820.44
2023-02-23T09:18:17.525Z,100816.22
2023-02-23T09:20:47.840Z,100809.09
2023-02-23T09:23:17.481Z,100816.81
2023-02-23T09:25:48.348Z,100797.06
2023-02-23T09:28:20.469Z,100823.09
2023-02-23T09:30:50.430Z,100826.50
2023-02-23T09:33:22.821Z,100818.66
2023-02-23T09:35:52.634Z,100764.38
2023-02-23T09:38:22.304Z,100794.72
2023-02-23T09:40:54.512Z,100821.31
2023-02-23T09:43:31.965Z,100796.19
2023-02-23T09:46:12.191Z,100835.94
2023-02-23T09:48:44.751Z,100819.56
2023-02-23T09:51:20.889Z,100828.19
2023-02-23T09:53:53.802Z,100836.72
2023-02-23T09:56:31.921Z,100837.63
2023-02-23T09:59:02.478Z,100842.66
2023-02-23T10:01:53.281Z,100843.47
2023-02-23T10:04:30.255Z,100839.94
2023-02-23T10:07:05.387Z,100845.19
2023-02-23T10:10:01.803Z,100834.09
2023-02-23T10:12:38.340Z,100853.84
2023-02-23T10:15:27.954Z,100850.41
2023-02-23T10:18:12.142Z,100857.19
2023-02-23T10:20:52.489Z,100855.31
2023-02-23T10:23:31.258Z,100810.38
2023-02-23T10:26:04.988Z,100848.31
2023-02-23T10:28:39.173Z,100863.53
2023-02-23T10:31:29.320Z,100804.91
2023-02-23T10:34:02.726Z,100837.53
2023-02-23T10:36:39.600Z,100855.06
2023-02-23T10:39:10.974Z,100866.28
2023-02-23T10:41:41.616Z,100865.50
2023-02-23T10:44:21.132Z,100838.97
2023-02-23T10:46:55.910Z,100862.31
2023-02-23T10:49:30.297Z,100865.81
2023-02-23T10:52:03.152Z,100825.38
2023-02-23T10:54:54.344Z,100864.09
2023-02-23T10:57:27.908Z,100859.91
2023-02-23T11:00:10.311Z,100859.16
2023-02-23T11:02:41.832Z,100856.50
2023-02-23T11:05:32.133Z,100833.50
2023-02-23T11:08:33.856Z,100854.19
2023-02-23T11:11:13.986Z,100814.56
2023-02-23T11:13:46.311Z,100855.78
2023-02-23T11:16:17.939Z,100827.94
2023-02-23T11:18:57.011Z,100817.81
2023-02-23T11:21:33.654Z,100845.66
2023-02-23T11:24:16.547Z,100828.50
2023-02-23T11:26:47.514Z,100838.00
2023-02-23T11:29:24.164Z,100818.34
2023-02-23T11:31:57.157Z,100850.13
2023-02-23T11:34:35.303Z,100841.00
2023-02-23T11:37:08.094Z,100815.06
2023-02-23T11:39:40.473Z,100840.97
2023-02-23T11:42:19.255Z,100817.72
2023-02-23T11:44:55.988Z,100832.50
2023-02-23T11:47:26.948Z,100840.50
2023-02-23T11:49:57.147Z,100840.44
2023-02-23T11:52:29.087Z,100836.25
2023-02-23T11:55:04.524Z,100813.88
2023-02-23T11:57:36.865Z,100831.06
2023-02-23T12:00:14.756Z,100815.75
2023-02-23T12:02:55.411Z,100810.75
2023-02-23T12:05:28.256Z,100825.53
2023-02-23T12:08:04.061Z,100798.00
2023-02-23T12:10:42.279Z,100798.84
2023-02-23T12:13:22.252Z,100813.50
2023-02-23T12:15:58.939Z,100754.16
2023-02-23T12:18:46.372Z,100817.25
2023-02-23T12:21:27.819Z,100758.53
2023-02-23T12:24:07.235Z,100814.66
2023-02-23T12:26:50.425Z,100791.44
2023-02-23T12:29:28.869Z,100807.09
2023-02-23T12:32:02.970Z,100812.81
2023-02-23T12:34:39.089Z,100782.44
2023-02-23T12:37:25.547Z,100738.53
2023-02-23T12:40:00.307Z,100817.84
2023-02-23T12:42:42.639Z,100817.09
2023-02-23T12:45:21.163Z,100810.06
2023-02-23T12:47:56.392Z,100802.38
2023-02-23T12:50:31.555Z,100785.97
2023-02-23T12:53:08.467Z,100810.91
2023-02-23T12:55:48.223Z,100785.91
2023-02-23T12:58:28.538Z,100714.09
2023-02-23T13:01:04.078Z,100810.59
2023-02-23T13:03:48.182Z,100777.88
2023-02-23T13:06:25.606Z,100791.59
2023-02-23T13:09:06.065Z,100792.59
2023-02-23T13:11:57.287Z,100781.34
2023-02-23T13:14:43.229Z,100800.34
2023-02-23T13:17:30.208Z,100812.38
2023-02-23T13:20:04.614Z,100809.84
2023-02-23T13:22:40.686Z,100810.75
2023-02-23T13:25:34.209Z,100810.50
2023-02-23T13:28:05.558Z,100801.03
2023-02-23T13:30:42.511Z,100813.25
2023-02-23T13:33:41.976Z,100804.56
2023-02-23T13:36:13.303Z,100780.41
2023-02-23T13:38:49.441Z,100800.28
2023-02-23T13:41:36.573Z,100792.34
2023-02-23T13:44:16.280Z,100811.88
2023-02-23T13:46:53.981Z,100758.56
2023-02-23T13:49:36.841Z,100800.78
2023-02-23T13:52:20.372Z,100780.94
2023-02-23T13:54:58.798Z,100812.00
2023-02-23T13:57:30.722Z,100780.53
2023-02-23T14:00:01.753Z,100822.75
2023-02-23T14:02:41.173Z,100774.47
2023-02-23T14:05:21.056Z,100742.44
2023-02-23T14:07:56.767Z,100801.72
2023-02-23T14:10:29.648Z,100790.22
2023-02-23T14:13:26.409Z,100821.19
2023-02-23T14:16:14.505Z,100794.81
2023-02-23T14:18:59.139Z,100773.72
2023-02-23T14:21:35.217Z,100761.97
2023-02-23T14:24:20.904Z,100834.38
2023-02-23T14:27:40.405Z,100822.91
2023-02-23T14:30:28.750Z,100834.66
2023-02-23T14:33:21.173Z,100822.81
2023-02-23T14:35:54.143Z,100790.16
2023-02-23T14:38:47.159Z,100838.44
2023-02-23T14:41:23.050Z,100810.91
2023-02-23T14:43:57.016Z,100828.31
2023-02-23T14:46:28.935Z,100757.78
2023-02-23T14:49:01.943Z,100818.34
2023-02-23T14:51:42.650Z,100823.06
2023-02-23T14:54:24.781Z,100829.03
2023-02-23T14:56:58.521Z,100834.94
2023-02-23T14:59:31.087Z,100837.50
2023-02-23T15:02:03.375Z,100832.34
2023-02-23T15:04:34.901Z,100775.13
2023-02-23T15:07:09.545Z,100767.50
2023-02-23T15:09:42.759Z,100804.63
2023-02-23T15:12:17.608Z,100815.97
2023-02-23T15:14:49.158Z,100772.81
2023-02-23T15:17:22.410Z,100761.56
2023-02-23T15:20:09.583Z,100853.81
2023-02-23T15:22:51.512Z,100828.88
2023-02-23T15:25:24.644Z,100801.38
2023-02-23T15:27:56.186Z,100846.25
2023-02-23T15:30:30.839Z,100828.66
2023-02-23T15:33:05.512Z,100848.53
2023-02-23T15:35:45.336Z,100737.91
2023-02-23T15:38:44.674Z,100851.94
2023-02-23T15:41:21.692Z,100786.31
2023-02-23T15:43:51.955Z,100779.06
2023-02-23T15:46:27.100Z,100837.16
2023-02-23T15:49:03.402Z,100756.97
2023-02-23T15:51:39.547Z,100794.25
2023-02-23T15:54:22.648Z,100772.19
2023-02-23T15:56:54.709Z,100846.34
2023-02-23T15:59:29.180Z,100851.69
2023-02-23T16:02:02.922Z,100836.28
2023-02-23T16:04:42.419Z,100831.19
2023-02-23T16:07:19.695Z,100817.31
2023-02-23T16:10:06.065Z,100845.84
2023-02-23T16:12:41.424Z,100762.63
2023-02-23T16:15:27.596Z,100842.09
2023-02-23T16:18:00.565Z,100825.38
2023-02-23T16:20:38.397Z,100847.97
2023-02-23T16:23:09.976Z,100823.09
2023-02-23T16:25:46.713Z,100751.53
2023-02-23T16:28:21.828Z,100772.44
2023-02-23T16:31:03.713Z,100759.69
2023-02-23T16:33:44.947Z,100837.38
2023-02-23T16:36:22.715Z,100795.81
2023-02-23T16:39:02.669Z,100835.53
2023-02-23T16:41:40.193Z,100839.06
2023-02-23T16:44:14.153Z,100832.69
2023-02-23T16:47:14.916Z,100840.56
2023-02-23T16:49:44.518Z,100836.91
2023-02-23T16:52:22.383Z,100833.28
2023-02-23T16:54:55.266Z,100840.28
2023-02-23T16:57:30.710Z,100845.38
2023-02-23T17:00:00.704Z,100839.19
2023-02-23T17:02:30.622Z,100827.91
2023-02-23T17:05:00.445Z,100816.63
2023-02-23T17:07:30.065Z,100834.31
2023-02-23T17:09:59.751Z,100840.00
2023-02-23T17:12:32.899Z,100867.47
2023-02-23T17:15:04.360Z,100862.06
2023-02-23T17:25:05.052Z,100862.94
2023-02-23T17:27:50.201Z,100860.75
2023-02-23T18:26:32.665Z,100649.59
2023-02-23T18:29:32.232Z,100816.97
2023-02-23T19:27:00.903Z,100930.72
2023-02-23T19:56:28.013Z,100761.72
2023-02-23T19:59:25.823Z,100782.16
2023-02-23T20:01:55.980Z,100849.69
2023-02-23T20:04:37.693Z,100901.09
2023-02-23T22:06:22.414Z,100923.34
2023-02-23T22:13:29.195Z,100932.75
2023-02-23T23:47:16.608Z,100552.69
2023-02-23T23:50:48.200Z,100521.84
2023-02-23T23:53:32.989Z,100830.72
2023-02-23T23:56:19.971Z,100667.16
2023-02-23T23:58:54.844Z,100662.59
